Time;durP1;ratioP1;P1;durP2;ratioP2;P2;SDS_P1;SDS_P2;PMS_P1;PMS_P2;Temp;Humidity;BMP_temperature;BMP_pressure;BME280_temperature;BME280_humidity;BME280_pressure;Samples;Min_cycle;Max_cycle;Signal;HPM_P1;HPM_P2
2020/12/21 00:00:26;;;;;;;3.93;3.00;;;;;21.90;100921.00;;;;2070793;28;20258;-77
2020/12/21 00:01:27;;;;;;;4.20;3.10;;;;;21.90;100913.00;;;;2078914;28;20213;-78
2020/12/21 00:02:27;;;;;;;5.73;3.10;;;;;21.90;100919.00;;;;2061333;28;20247;-78
2020/12/21 00:03:27;;;;;;;5.10;3.53;;;;;21.90;100916.00;;;;2054532;28;20235;-78
2020/12/21 00:04:28;;;;;;;5.80;3.60;;;;;21.90;100925.00;;;;2070755;28;20767;-77
2020/12/21 00:05:30;;;;;;;4.07;3.00;;;;;21.90;100926.00;;;;2070210;28;20696;-78
2020/12/21 00:06:30;;;;;;;4.20;3.15;;;;;21.90;100923.00;;;;2056229;28;20563;-73
2020/12/21 00:07:31;;;;;;;4.63;2.87;;;;;21.90;100918.00;;;;2062272;28;20243;-73
2020/12/21 00:08:31;;;;;;;6.07;3.57;;;;;21.80;100921.00;;;;2064407;28;20768;-74
2020/12/21 00:09:32;;;;;;;3.43;2.70;;;;;21.90;100913.00;;;;2070149;28;20225;-74
2020/12/21 00:10:32;;;;;;;4.10;2.80;;;;;21.90;100916.00;;;;2054200;28;20265;-73
2020/12/21 00:11:37;;;;;;;4.70;2.90;;;;;21.90;100912.00;;;;2056468;28;20240;-74
2020/12/21 00:12:37;;;;;;;4.30;3.08;;;;;21.60;100915.00;;;;2061015;28;20642;-74
2020/12/21 00:13:43;;;;;;;5.10;2.90;;;;;21.90;100912.00;;;;2054695;28;20224;-73
2020/12/21 00:14:43;;;;;;;3.50;3.20;;;;;21.80;100917.00;;;;2065537;28;20319;-73
2020/12/21 00:15:44;;;;;;;4.30;3.00;;;;;21.90;100916.00;;;;2059859;28;20714;-74
2020/12/21 00:16:47;;;;;;;3.90;2.77;;;;;21.80;100915.00;;;;2057915;28;20262;-74
2020/12/21 00:17:47;;;;;;;4.60;2.90;;;;;21.80;100916.00;;;;2070844;28;20256;-73
2020/12/21 00:18:47;;;;;;;4.47;3.40;;;;;21.90;100909.00;;;;2066287;28;20216;-73
2020/12/21 00:19:48;;;;;;;5.00;2.77;;;;;21.90;100915.00;;;;2065979;28;20214;-73
2020/12/21 00:20:48;;;;;;;4.63;2.77;;;;;21.80;100913.00;;;;2058755;28;20701;-74
2020/12/21 00:21:52;;;;;;;4.87;2.90;;;;;21.80;100915.00;;;;2061223;28;20217;-74
2020/12/21 00:22:52;;;;;;;4.80;2.55;;;;;21.80;100912.00;;;;2056182;28;20630;-73
2020/12/21 00:23:53;;;;;;;3.83;2.90;;;;;21.80;100905.00;;;;2056665;28;20221;-73
2020/12/21 00:24:53;;;;;;;3.97;2.60;;;;;21.80;100910.00;;;;2068504;28;20213;-73
2020/12/21 00:25:53;;;;;;;3.10;2.80;;;;;21.80;100910.00;;;;2060451;28;20238;-73
2020/12/21 00:26:54;;;;;;;4.70;3.03;;;;;21.80;100904.00;;;;2060852;28;20756;-73
2020/12/21 00:27:54;;;;;;;3.30;2.77;;;;;21.80;100903.00;;;;2068829;28;20568;-74
2020/12/21 00:28:55;;;;;;;3.77;2.77;;;;;21.80;100906.00;;;;2077026;28;20307;-73
2020/12/21 00:29:55;;;;;;;4.87;2.60;;;;;21.80;100908.00;;;;2072717;28;20240;-73
2020/12/21 00:30:55;;;;;;;3.70;2.50;;;;;21.80;100908.00;;;;2058695;28;20229;-74
2020/12/21 00:31:56;;;;;;;3.93;2.43;;;;;21.80;100907.00;;;;2067278;28;20775;-73
2020/12/21 00:32:57;;;;;;;3.87;2.70;;;;;21.80;100914.00;;;;2064061;28;20228;-74
2020/12/21 00:33:58;;;;;;;4.67;2.63;;;;;21.80;100910.00;;;;2064456;28;20802;-73
2020/12/21 00:34:58;;;;;;;5.68;2.70;;;;;21.80;100913.00;;;;2081267;28;20220;-73
2020/12/21 00:35:59;;;;;;;5.33;2.60;;;;;21.80;100908.00;;;;2072689;28;20658;-74
2020/12/21 00:36:59;;;;;;;4.87;2.83;;;;;21.80;100912.00;;;;2064738;28;20215;-74
2020/12/21 00:38:00;;;;;;;4.10;2.37;;;;;21.80;100910.00;;;;2072978;28;20732;-74
2020/12/21 00:39:00;;;;;;;5.53;3.03;;;;;21.80;100902.00;;;;2067502;28;20241;-73
2020/12/21 00:40:00;;;;;;;5.10;2.97;;;;;21.80;100910.00;;;;2069608;28;20235;-73
2020/12/21 00:41:06;;;;;;;4.60;2.87;;;;;21.80;100903.00;;;;2081730;28;20216;-73
2020/12/21 00:42:07;;;;;;;5.85;2.85;;;;;21.80;100909.00;;;;2081461;28;20219;-72
2020/12/21 00:43:07;;;;;;;4.87;2.40;;;;;21.80;100910.00;;;;2075332;28;20298;-74
2020/12/21 00:44:07;;;;;;;3.30;2.30;;;;;21.80;100913.00;;;;2079207;28;20207;-74
2020/12/21 00:45:08;;;;;;;5.23;2.67;;;;;21.80;100918.00;;;;2075325;28;20224;-73
2020/12/21 00:46:27;;;;;;;3.63;2.13;;;;;21.80;100893.00;;;;2070595;28;20225;-73
2020/12/21 00:47:31;;;;;;;5.28;2.40;;;;;21.80;100918.00;;;;2064410;28;20261;-74
2020/12/21 00:48:32;;;;;;;3.63;2.50;;;;;21.80;100916.00;;;;2064939;28;20599;-74
2020/12/21 00:49:32;;;;;;;3.92;2.47;;;;;21.80;100914.00;;;;2073227;28;20225;-73
2020/12/21 00:50:32;;;;;;;3.47;2.33;;;;;21.80;100919.00;;;;2065434;28;20231;-73
2020/12/21 00:51:33;;;;;;;6.67;3.10;;;;;21.80;100915.00;;;;2073195;28;20206;-73
2020/12/21 00:52:33;;;;;;;5.23;2.33;;;;;21.80;100918.00;;;;2072945;28;20221;-73
2020/12/21 00:53:34;;;;;;;4.00;2.40;;;;;21.70;100916.00;;;;2064430;28;20262;-73
2020/12/21 00:54:34;;;;;;;2.77;2.33;;;;;21.70;100915.00;;;;2064249;28;20222;-73
2020/12/21 00:55:34;;;;;;;3.70;2.50;;;;;21.70;100911.00;;;;2072580;28;20208;-73
2020/12/21 00:56:35;;;;;;;4.43;2.10;;;;;21.70;100909.00;;;;2070559;28;20288;-73
2020/12/21 00:57:35;;;;;;;4.97;2.47;;;;;21.50;100920.00;;;;2064302;28;20246;-73
2020/12/21 00:58:37;;;;;;;3.93;2.10;;;;;21.70;100913.00;;;;2064475;28;20214;-73
2020/12/21 00:59:37;;;;;;;4.75;2.35;;;;;21.70;100910.00;;;;2050206;28;20770;-73
2020/12/21 01:00:38;;;;;;;4.60;2.50;;;;;21.70;100905.00;;;;2056093;28;20222;-72
2020/12/21 01:01:38;;;;;;;4.20;2.70;;;;;21.70;100906.00;;;;2048552;28;20601;-73
2020/12/21 01:02:39;;;;;;;4.43;2.43;;;;;21.70;100910.00;;;;2072364;28;20692;-73
2020/12/21 01:03:39;;;;;;;4.20;2.30;;;;;21.70;100917.00;;;;2070474;28;20230;-74
2020/12/21 01:04:39;;;;;;;3.90;2.47;;;;;21.70;100916.00;;;;2067943;28;20285;-78
2020/12/21 01:05:40;;;;;;;4.23;2.40;;;;;21.70;100913.00;;;;2070345;28;20790;-73
2020/12/21 01:06:40;;;;;;;3.63;2.30;;;;;21.70;100925.00;;;;2059006;28;20851;-73
2020/12/21 01:07:40;;;;;;;4.27;2.20;;;;;21.70;100912.00;;;;2070555;28;20688;-73
2020/12/21 01:08:41;;;;;;;3.37;2.30;;;;;21.70;100914.00;;;;2066804;28;20224;-74
2020/12/21 01:09:45;;;;;;;3.10;1.93;;;;;21.70;100919.00;;;;2064575;28;20257;-73
2020/12/21 01:10:46;;;;;;;4.55;2.65;;;;;21.70;100892.00;;;;2054398;28;20223;-73
2020/12/21 01:11:46;;;;;;;3.47;2.07;;;;;21.70;100919.00;;;;2051396;28;20285;-73
2020/12/21 01:12:47;;;;;;;5.60;2.60;;;;;21.70;100909.00;;;;2048560;29;20244;-73
2020/12/21 01:13:47;;;;;;;3.10;2.20;;;;;21.70;100920.00;;;;2064466;28;20217;-73
2020/12/21 01:14:48;;;;;;;5.90;3.00;;;;;21.60;100919.00;;;;2064522;28;20214;-73
2020/12/21 01:15:48;;;;;;;2.90;2.03;;;;;21.70;100920.00;;;;2064662;28;20974;-74
2020/12/21 01:16:49;;;;;;;3.57;2.27;;;;;21.70;100920.00;;;;2067759;28;20807;-74
2020/12/21 01:17:49;;;;;;;4.30;2.20;;;;;21.70;100911.00;;;;2072621;28;20217;-74
2020/12/21 01:18:50;;;;;;;4.87;2.30;;;;;21.70;100914.00;;;;2072912;28;20646;-74
2020/12/21 01:19:50;;;;;;;4.40;2.50;;;;;21.70;100924.00;;;;2073001;28;20613;-73
2020/12/21 01:20:50;;;;;;;3.43;1.93;;;;;21.70;100909.00;;;;2064330;28;20237;-73
2020/12/21 01:21:51;;;;;;;4.60;2.20;;;;;21.70;100914.00;;;;2068227;28;20225;-73
2020/12/21 01:22:51;;;;;;;4.83;2.17;;;;;21.70;100914.00;;;;2081170;28;20236;-73
2020/12/21 01:23:52;;;;;;;3.50;2.33;;;;;21.70;100922.00;;;;2081219;28;20215;-73
2020/12/21 01:24:52;;;;;;;2.90;2.13;;;;;21.60;100922.00;;;;2081327;28;20210;-73
2020/12/21 01:25:52;;;;;;;2.70;1.93;;;;;21.60;100917.00;;;;2077112;28;20226;-73
2020/12/21 01:26:53;;;;;;;4.87;2.60;;;;;21.60;100917.00;;;;2073061;28;20236;-72
2020/12/21 01:27:53;;;;;;;4.80;2.23;;;;;21.60;100922.00;;;;2064490;28;20680;-73
2020/12/21 01:28:54;;;;;;;4.23;2.30;;;;;21.60;100918.00;;;;2064415;28;20216;-71
2020/12/21 01:29:54;;;;;;;4.47;2.00;;;;;21.60;100917.00;;;;2060575;28;20217;-73
2020/12/21 01:30:54;;;;;;;4.80;2.30;;;;;21.60;100929.00;;;;2063978;28;20215;-73
2020/12/21 01:31:55;;;;;;;4.17;2.33;;;;;21.60;100917.00;;;;2075274;28;20232;-73
2020/12/21 01:32:55;;;;;;;2.43;1.70;;;;;21.60;100921.00;;;;2072521;28;20794;-72
2020/12/21 01:33:55;;;;;;;2.97;1.83;;;;;21.60;100929.00;;;;2064213;28;20723;-72
2020/12/21 01:34:56;;;;;;;4.10;2.10;;;;;21.60;100930.00;;;;2072043;28;20639;-73
2020/12/21 01:35:56;;;;;;;2.87;1.80;;;;;21.60;100928.00;;;;2068893;28;20734;-72
2020/12/21 01:36:56;;;;;;;3.13;1.93;;;;;21.60;100931.00;;;;2072270;28;20284;-73
2020/12/21 01:37:57;;;;;;;3.27;1.93;;;;;21.60;100929.00;;;;2073351;28;20227;-73
2020/12/21 01:38:57;;;;;;;3.97;2.17;;;;;21.60;100926.00;;;;2072988;28;20576;-73
2020/12/21 01:39:58;;;;;;;4.43;2.30;;;;;21.60;100922.00;;;;2072693;28;20223;-73
2020/12/21 01:40:59;;;;;;;2.58;1.65;;;;;21.60;100937.00;;;;2077441;28;20220;-73
2020/12/21 01:41:59;;;;;;;4.70;2.03;;;;;21.60;100928.00;;;;2064932;28;20229;-73
2020/12/21 01:43:00;;;;;;;4.47;2.00;;;;;21.60;100934.00;;;;2055761;28;20348;-73
2020/12/21 01:44:00;;;;;;;3.37;1.90;;;;;21.60;100932.00;;;;2072413;28;20215;-73
2020/12/21 01:45:00;;;;;;;3.27;2.03;;;;;21.60;100947.00;;;;2073742;28;20216;-72
2020/12/21 01:46:11;;;;;;;2.90;1.87;;;;;21.60;100925.00;;;;2066959;28;20763;-73
2020/12/21 01:47:12;;;;;;;2.80;1.80;;;;;21.60;100927.00;;;;2064287;28;20217;-73
2020/12/21 01:48:12;;;;;;;1.87;1.60;;;;;21.60;100931.00;;;;2064311;28;20224;-73
2020/12/21 01:49:12;;;;;;;4.80;2.07;;;;;21.60;100926.00;;;;2066619;28;20234;-73
2020/12/21 01:50:13;;;;;;;3.20;1.90;;;;;21.60;100919.00;;;;2056144;28;20242;-72
2020/12/21 01:51:23;;;;;;;3.77;2.50;;;;;21.50;100922.00;;;;2062786;28;20261;-73
2020/12/21 01:52:23;;;;;;;3.85;2.20;;;;;21.60;100926.00;;;;2065643;28;20208;-73
2020/12/21 01:53:23;;;;;;;3.97;2.00;;;;;21.60;100919.00;;;;2064760;28;20301;-73
2020/12/21 01:54:24;;;;;;;4.10;2.13;;;;;21.50;100913.00;;;;2064272;28;20241;-73
2020/12/21 01:55:24;;;;;;;2.70;1.60;;;;;21.60;100919.00;;;;2072426;28;20217;-73
2020/12/21 01:56:24;;;;;;;4.50;2.07;;;;;21.60;100916.00;;;;2064443;28;20213;-72
2020/12/21 01:57:25;;;;;;;3.90;2.30;;;;;21.60;100911.00;;;;2056298;28;20249;-73
2020/12/21 01:58:25;;;;;;;2.80;1.80;;;;;21.60;100897.00;;;;2072334;28;20216;-73
2020/12/21 01:59:26;;;;;;;2.67;1.70;;;;;21.60;100917.00;;;;2071995;28;20244;-73
2020/12/21 02:00:29;;;;;;;3.97;2.47;;;;;21.60;100913.00;;;;2056681;28;20282;-73
2020/12/21 02:01:30;;;;;;;3.13;1.65;;;;;21.50;100915.00;;;;2064745;28;20234;-72
2020/12/21 02:02:30;;;;;;;3.00;1.80;;;;;21.50;100927.00;;;;2071438;28;20764;-73
2020/12/21 02:03:30;;;;;;;2.83;1.90;;;;;21.50;100909.00;;;;2064161;28;20708;-73
2020/12/21 02:04:31;;;;;;;3.50;1.70;;;;;21.50;100918.00;;;;2058013;28;20914;-73
2020/12/21 02:05:31;;;;;;;4.63;2.20;;;;;21.60;100919.00;;;;2055994;28;20253;-73
2020/12/21 02:06:31;;;;;;;3.50;1.97;;;;;21.60;100918.00;;;;2064014;28;20277;-73
2020/12/21 02:07:32;;;;;;;2.83;1.67;;;;;21.50;100919.00;;;;2064248;28;20213;-73
2020/12/21 02:08:32;;;;;;;4.40;2.13;;;;;21.50;100917.00;;;;2055683;28;20233;-72
2020/12/21 02:09:33;;;;;;;3.03;1.80;;;;;21.50;100920.00;;;;2057102;28;20225;-73
2020/12/21 02:10:33;;;;;;;2.47;1.80;;;;;21.50;100915.00;;;;2063694;28;20222;-73
2020/12/21 02:11:41;;;;;;;4.20;1.87;;;;;21.50;100914.00;;;;2055766;28;20217;-73
2020/12/21 02:12:41;;;;;;;5.05;2.38;;;;;21.50;100919.00;;;;2066294;28;20276;-73
2020/12/21 02:13:41;;;;;;;2.40;1.50;;;;;21.50;100915.00;;;;2072255;28;20261;-73
2020/12/21 02:14:41;;;;;;;3.77;1.80;;;;;21.50;100912.00;;;;2078128;28;20208;-73
2020/12/21 02:15:42;;;;;;;3.10;2.00;;;;;21.50;100910.00;;;;2066888;28;20221;-73
2020/12/21 02:16:42;;;;;;;3.30;2.20;;;;;21.50;100912.00;;;;2069623;28;20260;-73
2020/12/21 02:17:42;;;;;;;3.50;1.90;;;;;21.50;100919.00;;;;2075039;28;20224;-73
2020/12/21 02:18:43;;;;;;;3.40;1.57;;;;;21.50;100917.00;;;;2077946;28;20719;-73
2020/12/21 02:19:43;;;;;;;4.00;2.07;;;;;21.50;100911.00;;;;2058473;28;20222;-73
2020/12/21 02:20:44;;;;;;;3.10;2.00;;;;;21.50;100909.00;;;;2053049;28;20664;-73
2020/12/21 02:21:45;;;;;;;3.00;1.80;;;;;21.50;100911.00;;;;2058341;28;20716;-73
2020/12/21 02:22:45;;;;;;;4.40;2.28;;;;;21.50;100912.00;;;;2074889;28;20327;-73
2020/12/21 02:23:46;;;;;;;4.10;1.70;;;;;21.50;100905.00;;;;2075496;28;20213;-73
2020/12/21 02:24:46;;;;;;;4.37;1.60;;;;;21.50;100887.00;;;;2071247;28;20214;-73
2020/12/21 02:25:46;;;;;;;3.53;1.83;;;;;21.50;100904.00;;;;2060534;28;20283;-72
2020/12/21 02:26:47;;;;;;;3.17;2.10;;;;;21.50;100914.00;;;;2063666;28;20206;-73
2020/12/21 02:27:50;;;;;;;3.63;1.80;;;;;21.50;100904.00;;;;2066945;28;20209;-73
2020/12/21 02:28:51;;;;;;;3.50;1.90;;;;;21.50;100910.00;;;;2058421;28;20277;-73
2020/12/21 02:29:51;;;;;;;3.53;1.85;;;;;21.50;100908.00;;;;2063889;28;20247;-72
2020/12/21 02:30:52;;;;;;;3.10;1.60;;;;;21.50;100898.00;;;;2067563;28;24482;-72
2020/12/21 02:31:52;;;;;;;5.17;1.90;;;;;21.50;100904.00;;;;2062209;28;20249;-72
2020/12/21 02:32:53;;;;;;;3.60;2.17;;;;;21.50;100910.00;;;;2059782;28;20222;-71
2020/12/21 02:33:53;;;;;;;2.70;1.80;;;;;21.50;100903.00;;;;2056744;28;20237;-72
2020/12/21 02:34:53;;;;;;;2.33;1.50;;;;;21.50;100893.00;;;;2071427;28;20636;-72
2020/12/21 02:35:54;;;;;;;2.20;1.40;;;;;21.50;100905.00;;;;2067474;28;20573;-72
2020/12/21 02:36:55;;;;;;;3.10;1.80;;;;;21.40;100909.00;;;;2059706;28;20219;-72
2020/12/21 02:37:55;;;;;;;2.83;1.80;;;;;21.40;100907.00;;;;2071701;28;21009;-73
2020/12/21 02:38:55;;;;;;;4.17;1.80;;;;;21.40;100898.00;;;;2076117;28;20467;-73
2020/12/21 02:39:56;;;;;;;4.57;2.10;;;;;21.40;100904.00;;;;2067294;28;20253;-71
2020/12/21 02:40:56;;;;;;;3.43;1.63;;;;;21.40;100907.00;;;;2067928;28;20241;-72
2020/12/21 02:41:56;;;;;;;3.13;1.73;;;;;21.40;100907.00;;;;2080524;28;20243;-71
2020/12/21 02:42:57;;;;;;;2.80;1.50;;;;;21.40;100899.00;;;;2075868;28;20224;-73
2020/12/21 02:43:57;;;;;;;4.40;2.07;;;;;21.40;100910.00;;;;2067017;28;20294;-71
2020/12/21 02:44:57;;;;;;;3.20;1.73;;;;;21.40;100902.00;;;;2049115;28;20231;-71
2020/12/21 02:45:58;;;;;;;3.30;1.60;;;;;21.40;100908.00;;;;2068383;28;20229;-72
2020/12/21 02:46:58;;;;;;;3.27;1.70;;;;;21.40;100918.00;;;;2066755;28;20225;-72
2020/12/21 02:47:58;;;;;;;3.87;1.90;;;;;21.40;100915.00;;;;2068330;28;20224;-73
2020/12/21 02:48:59;;;;;;;3.70;1.80;;;;;21.40;100909.00;;;;2075465;28;20256;-72
2020/12/21 02:49:59;;;;;;;3.40;1.80;;;;;21.40;100914.00;;;;2068455;28;20212;-72
2020/12/21 02:51:00;;;;;;;3.70;1.60;;;;;21.40;100915.00;;;;2066679;28;20228;-73
2020/12/21 02:52:00;;;;;;;3.00;1.50;;;;;21.40;100911.00;;;;2063542;28;20240;-73
2020/12/21 02:53:00;;;;;;;3.20;1.90;;;;;21.40;100910.00;;;;2068501;28;20423;-72
2020/12/21 02:54:01;;;;;;;2.73;1.53;;;;;21.40;100916.00;;;;2075066;28;20301;-72
2020/12/21 02:55:01;;;;;;;3.00;1.70;;;;;21.40;100907.00;;;;2060275;28;20218;-72
2020/12/21 02:56:04;;;;;;;2.27;1.60;;;;;21.40;100914.00;;;;2058384;28;20230;-73
2020/12/21 02:57:05;;;;;;;4.18;1.50;;;;;21.40;100915.00;;;;2069002;28;20677;-72
2020/12/21 02:58:05;;;;;;;2.47;1.40;;;;;21.40;100926.00;;;;2049795;28;20278;-72
2020/12/21 02:59:06;;;;;;;2.90;1.63;;;;;21.40;100928.00;;;;2060927;28;20555;-73
2020/12/21 03:00:08;;;;;;;3.10;1.70;;;;;21.10;100895.00;;;;2071530;28;20279;-73
2020/12/21 03:01:08;;;;;;;3.42;1.92;;;;;21.40;100927.00;;;;2065476;28;20222;-73
2020/12/21 03:02:08;;;;;;;2.43;1.90;;;;;21.40;100929.00;;;;2061412;28;20229;-73
2020/12/21 03:03:09;;;;;;;3.17;1.73;;;;;21.40;100927.00;;;;2063222;28;20235;-72
2020/12/21 03:04:09;;;;;;;3.60;1.77;;;;;21.40;100895.00;;;;2062154;28;20214;-72
2020/12/21 03:05:10;;;;;;;3.70;1.87;;;;;21.40;100919.00;;;;2054141;28;20202;-73
2020/12/21 03:06:10;;;;;;;3.20;1.77;;;;;21.40;100920.00;;;;2055246;28;20301;-73
2020/12/21 03:07:10;;;;;;;2.97;1.63;;;;;21.40;100921.00;;;;2055355;28;20199;-72
2020/12/21 03:08:11;;;;;;;2.60;1.60;;;;;21.40;100917.00;;;;2056873;28;20214;-73
2020/12/21 03:09:11;;;;;;;4.93;1.87;;;;;21.40;100917.00;;;;2056893;28;20218;-73
2020/12/21 03:10:11;;;;;;;2.37;1.63;;;;;21.40;100926.00;;;;2078178;28;21022;-73
2020/12/21 03:11:12;;;;;;;2.33;1.73;;;;;21.40;100920.00;;;;2063377;28;20636;-73
2020/12/21 03:12:12;;;;;;;5.23;2.30;;;;;21.40;100915.00;;;;2069949;28;20727;-73
2020/12/21 03:13:13;;;;;;;3.70;1.83;;;;;21.40;100925.00;;;;2064758;28;20222;-73
2020/12/21 03:14:13;;;;;;;3.33;1.70;;;;;21.40;100917.00;;;;2061963;28;20264;-73
2020/12/21 03:15:13;;;;;;;4.33;1.70;;;;;21.40;100923.00;;;;2063333;28;20217;-73
2020/12/21 03:16:14;;;;;;;2.13;1.57;;;;;21.40;100920.00;;;;2064622;28;20268;-73
2020/12/21 03:17:14;;;;;;;3.63;1.57;;;;;21.40;100917.00;;;;2079070;28;20242;-73
2020/12/21 03:18:14;;;;;;;3.17;1.87;;;;;21.40;100918.00;;;;2064447;28;20206;-73
2020/12/21 03:19:15;;;;;;;3.17;1.57;;;;;21.30;100921.00;;;;2062214;28;20232;-73
2020/12/21 03:20:15;;;;;;;5.00;1.60;;;;;21.40;100922.00;;;;2063308;28;20214;-73
2020/12/21 03:21:16;;;;;;;3.73;2.10;;;;;21.30;100924.00;;;;2070400;28;20815;-73
2020/12/21 03:22:16;;;;;;;2.43;1.57;;;;;21.30;100924.00;;;;2055802;28;20703;-73
2020/12/21 03:23:16;;;;;;;3.53;1.90;;;;;21.30;100921.00;;;;2070272;28;20744;-73
2020/12/21 03:24:17;;;;;;;3.80;1.93;;;;;21.30;100921.00;;;;2056140;28;20218;-73
2020/12/21 03:25:17;;;;;;;4.23;1.80;;;;;21.40;100921.00;;;;2062292;28;20205;-73
2020/12/21 03:26:17;;;;;;;3.07;1.60;;;;;21.30;100919.00;;;;2071270;28;20230;-73
2020/12/21 03:27:18;;;;;;;2.00;1.37;;;;;21.30;100919.00;;;;2070818;28;20213;-72
2020/12/21 03:28:18;;;;;;;4.10;2.50;;;;;21.30;100921.00;;;;2064015;28;20214;-73
2020/12/21 03:29:18;;;;;;;3.70;1.80;;;;;21.30;100914.00;;;;2070317;28;20225;-73
2020/12/21 03:30:19;;;;;;;4.00;1.60;;;;;21.30;100916.00;;;;2070400;28;20224;-73
2020/12/21 03:31:19;;;;;;;3.60;1.83;;;;;21.30;100923.00;;;;2055414;28;20214;-73
2020/12/21 03:32:19;;;;;;;3.40;1.60;;;;;21.30;100916.00;;;;2052566;28;20214;-73
2020/12/21 03:33:20;;;;;;;2.40;1.50;;;;;21.30;100915.00;;;;2054260;28;20214;-73
2020/12/21 03:34:20;;;;;;;4.97;1.50;;;;;21.30;100917.00;;;;2054909;28;20212;-73
2020/12/21 03:35:20;;;;;;;4.13;1.83;;;;;21.30;100920.00;;;;2070973;28;20198;-73
2020/12/21 03:36:21;;;;;;;3.27;1.70;;;;;21.30;100914.00;;;;2079743;28;20220;-72
2020/12/21 03:37:21;;;;;;;1.77;1.50;;;;;21.30;100907.00;;;;2070693;28;20232;-73
2020/12/21 03:38:22;;;;;;;2.00;1.30;;;;;21.30;100905.00;;;;2055285;28;21062;-72
2020/12/21 03:39:22;;;;;;;3.73;1.70;;;;;21.30;100919.00;;;;2046998;29;20217;-72
2020/12/21 03:40:23;;;;;;;2.60;1.50;;;;;21.30;100909.00;;;;2060730;28;20221;-72
2020/12/21 03:41:23;;;;;;;3.10;1.50;;;;;21.30;100909.00;;;;2071324;28;20205;-73
2020/12/21 03:42:23;;;;;;;3.90;1.70;;;;;21.30;100903.00;;;;2071506;28;20218;-73
2020/12/21 03:43:24;;;;;;;2.30;1.40;;;;;21.30;100904.00;;;;2063088;28;20221;-73
2020/12/21 03:44:24;;;;;;;2.93;1.50;;;;;21.30;100904.00;;;;2063262;28;20213;-73
2020/12/21 03:45:24;;;;;;;4.30;1.83;;;;;21.20;100910.00;;;;2063187;28;20214;-72
2020/12/21 03:46:25;;;;;;;4.07;1.83;;;;;21.30;100904.00;;;;2079470;28;20216;-73
2020/12/21 03:47:25;;;;;;;3.23;1.47;;;;;21.30;100900.00;;;;2047475;28;20223;-72
2020/12/21 03:48:26;;;;;;;2.60;1.53;;;;;21.30;100901.00;;;;2047089;29;20223;-73
2020/12/21 03:49:26;;;;;;;2.57;1.40;;;;;21.30;100897.00;;;;2071117;28;20223;-72
2020/12/21 03:50:26;;;;;;;3.83;1.47;;;;;21.30;100897.00;;;;2070762;28;20224;-71
2020/12/21 03:51:27;;;;;;;2.37;1.27;;;;;21.30;100895.00;;;;2055599;28;20246;-72
2020/12/21 03:52:27;;;;;;;2.97;1.40;;;;;21.30;100885.00;;;;2063208;28;20273;-72
2020/12/21 03:53:27;;;;;;;2.50;1.50;;;;;21.30;100888.00;;;;2070801;28;20213;-72
2020/12/21 03:54:28;;;;;;;2.63;1.70;;;;;21.30;100888.00;;;;2063589;28;20210;-72
2020/12/21 03:55:28;;;;;;;3.50;1.43;;;;;21.30;100879.00;;;;2069403;28;20209;-72
2020/12/21 03:56:28;;;;;;;3.70;1.73;;;;;21.30;100864.00;;;;2055738;28;20219;-72
2020/12/21 03:57:29;;;;;;;2.00;1.40;;;;;21.20;100875.00;;;;2055177;28;20214;-72
2020/12/21 03:58:29;;;;;;;2.70;1.47;;;;;21.20;100876.00;;;;2064006;28;20223;-72
2020/12/21 03:59:29;;;;;;;3.43;1.60;;;;;21.20;100849.00;;;;2070555;28;20212;-72
2020/12/21 04:00:30;;;;;;;2.60;1.40;;;;;21.20;100871.00;;;;2056012;28;20218;-73
2020/12/21 04:01:30;;;;;;;2.73;1.43;;;;;21.30;100871.00;;;;2062353;28;20233;-72
2020/12/21 04:02:33;;;;;;;3.60;1.20;;;;;21.30;100868.00;;;;2056131;28;20270;-72
2020/12/21 04:03:34;;;;;;;2.97;1.60;;;;;21.30;100858.00;;;;2064295;28;20217;-71
2020/12/21 04:04:34;;;;;;;2.73;1.53;;;;;21.20;100865.00;;;;2064203;28;20242;-72
2020/12/21 04:05:34;;;;;;;2.60;1.50;;;;;21.20;100866.00;;;;2064632;28;20221;-72
2020/12/21 04:06:35;;;;;;;3.87;1.77;;;;;21.20;100872.00;;;;2061616;28;20280;-72
2020/12/21 04:07:36;;;;;;;2.53;1.43;;;;;21.20;100865.00;;;;2064316;28;20237;-72
2020/12/21 04:08:36;;;;;;;2.50;1.40;;;;;21.20;100867.00;;;;2069404;28;20724;-71
2020/12/21 04:09:36;;;;;;;2.90;1.40;;;;;21.20;100864.00;;;;2056662;28;20240;-72
2020/12/21 04:10:38;;;;;;;2.33;1.40;;;;;21.20;100869.00;;;;2069376;28;20221;-72
2020/12/21 04:11:39;;;;;;;2.55;1.45;;;;;21.20;100867.00;;;;2073865;28;20232;-72
2020/12/21 04:12:39;;;;;;;2.60;1.33;;;;;21.20;100863.00;;;;2053137;28;20648;-72
2020/12/21 04:13:39;;;;;;;2.07;1.20;;;;;21.20;100861.00;;;;2049359;28;20215;-72
2020/12/21 04:14:40;;;;;;;3.87;1.40;;;;;21.20;100869.00;;;;2068981;28;20673;-72
2020/12/21 04:15:40;;;;;;;2.50;1.20;;;;;21.20;100869.00;;;;2057328;28;20209;-72
2020/12/21 04:16:40;;;;;;;3.40;1.43;;;;;21.20;100858.00;;;;2060991;28;20213;-72
2020/12/21 04:17:41;;;;;;;2.90;1.40;;;;;21.20;100867.00;;;;2057565;28;20231;-71
2020/12/21 04:18:41;;;;;;;2.17;1.50;;;;;21.20;100867.00;;;;2060850;28;20304;-72
2020/12/21 04:19:41;;;;;;;2.33;1.13;;;;;21.20;100873.00;;;;2065565;28;20218;-72
2020/12/21 04:20:42;;;;;;;2.77;1.40;;;;;21.20;100879.00;;;;2077625;28;20215;-72
2020/12/21 04:21:42;;;;;;;2.40;1.20;;;;;21.20;100878.00;;;;2074161;28;20213;-73
2020/12/21 04:22:42;;;;;;;1.63;1.33;;;;;21.20;100869.00;;;;2077663;28;20228;-72
2020/12/21 04:23:43;;;;;;;2.33;1.33;;;;;21.20;100869.00;;;;2065978;28;20305;-72
2020/12/21 04:24:43;;;;;;;2.93;1.63;;;;;21.20;100871.00;;;;2060855;28;20213;-72
2020/12/21 04:25:43;;;;;;;3.60;1.53;;;;;21.20;100876.00;;;;2049788;28;20222;-72
2020/12/21 04:26:44;;;;;;;2.60;1.43;;;;;21.20;100876.00;;;;2050495;28;20222;-72
2020/12/21 04:27:44;;;;;;;5.87;1.60;;;;;21.20;100867.00;;;;2050021;28;20252;-72
2020/12/21 04:28:48;;;;;;;3.17;1.43;;;;;21.20;100876.00;;;;2049954;28;20806;-72
2020/12/21 04:29:48;;;;;;;3.13;1.17;;;;;21.20;100868.00;;;;2059186;28;20253;-73
2020/12/21 04:30:48;;;;;;;3.27;1.53;;;;;21.20;100875.00;;;;2051296;28;20752;-73
2020/12/21 04:31:53;;;;;;;2.30;1.90;;;;;21.20;100886.00;;;;2055500;28;20704;-72
2020/12/21 04:32:53;;;;;;;4.05;1.45;;;;;21.20;100882.00;;;;2068429;28;20217;-72
2020/12/21 04:33:53;;;;;;;3.17;1.47;;;;;21.20;100874.00;;;;2079629;28;20687;-72
2020/12/21 04:34:54;;;;;;;2.37;0.97;;;;;21.20;100878.00;;;;2070724;28;20296;-73
2020/12/21 04:35:54;;;;;;;4.83;1.60;;;;;21.20;100881.00;;;;2062975;28;20402;-72
2020/12/21 04:36:54;;;;;;;3.70;1.30;;;;;21.20;100889.00;;;;2070670;28;20213;-71
2020/12/21 04:37:55;;;;;;;2.40;1.53;;;;;21.20;100881.00;;;;2079790;28;20316;-72
2020/12/21 04:38:55;;;;;;;5.10;1.60;;;;;21.20;100893.00;;;;2075400;28;20224;-72
2020/12/21 04:39:55;;;;;;;4.50;1.33;;;;;21.10;100880.00;;;;2067235;28;20229;-72
2020/12/21 04:40:56;;;;;;;2.57;1.20;;;;;21.20;100887.00;;;;2058681;28;20306;-71
2020/12/21 04:41:57;;;;;;;1.60;1.10;;;;;21.10;100857.00;;;;2058865;28;20249;-73
2020/12/21 04:42:58;;;;;;;2.75;1.33;;;;;21.10;100883.00;;;;2058550;28;20254;-72
2020/12/21 04:43:58;;;;;;;2.22;1.30;;;;;21.10;100862.00;;;;2059594;28;20254;-72
2020/12/21 04:44:59;;;;;;;2.80;1.20;;;;;21.10;100872.00;;;;2050183;28;20216;-73
2020/12/21 04:46:05;;;;;;;2.20;1.23;;;;;21.10;100873.00;;;;2067577;28;20255;-72
2020/12/21 04:47:06;;;;;;;2.80;1.42;;;;;21.10;100870.00;;;;2065383;28;20275;-72
2020/12/21 04:48:06;;;;;;;2.70;1.10;;;;;21.10;100865.00;;;;2060679;28;20226;-72
2020/12/21 04:49:06;;;;;;;3.23;1.20;;;;;21.10;100872.00;;;;2054967;28;20287;-72
2020/12/21 04:50:10;;;;;;;3.20;1.50;;;;;21.10;100876.00;;;;2054891;28;20239;-73
2020/12/21 04:51:11;;;;;;;2.15;1.30;;;;;21.10;100873.00;;;;2047161;28;20289;-72
2020/12/21 04:52:11;;;;;;;2.50;1.00;;;;;21.10;100866.00;;;;2047181;28;20223;-72
2020/12/21 04:53:12;;;;;;;2.80;1.50;;;;;21.10;100868.00;;;;2055069;28;20229;-72
2020/12/21 04:54:13;;;;;;;2.03;1.03;;;;;21.10;100878.00;;;;2071104;28;20467;-72
2020/12/21 04:55:15;;;;;;;3.97;1.65;;;;;21.10;100878.00;;;;2064087;28;20232;-73
2020/12/21 04:56:15;;;;;;;2.70;1.27;;;;;21.10;100876.00;;;;2061937;28;20224;-72
2020/12/21 04:57:15;;;;;;;2.53;1.00;;;;;21.10;100870.00;;;;2063004;28;20239;-72
2020/12/21 04:58:16;;;;;;;1.90;1.10;;;;;21.10;100876.00;;;;2070025;28;20755;-72
2020/12/21 04:59:16;;;;;;;2.50;1.37;;;;;21.00;100873.00;;;;2062931;28;20236;-72
2020/12/21 05:00:16;;;;;;;1.90;0.97;;;;;21.10;100871.00;;;;2046447;28;20298;-72